Time;durP1;ratioP1;P1;durP2;ratioP2;P2;SDS_P1;SDS_P2;PMS_P1;PMS_P2;Temp;Humidity;BMP_temperature;BMP_pressure;BME280_temperature;BME280_humidity;BME280_pressure;Samples;Min_cycle;Max_cycle;Signal;HPM_P1;HPM_P2
2023/05/09 00:00:43;;;;;;;;;;;;;;;23.79;22.06;99168.50;5079268;28;19973;-85
2023/05/09 00:03:11;;;;;;;;;;;;;;;23.82;21.53;99174.09;5059136;28;19974;-85
2023/05/09 00:05:37;;;;;;;;;;;;;;;23.90;21.78;99180.47;5056588;28;20440;-85
2023/05/09 00:08:03;;;;;;;;;;;;;;;24.00;21.36;99174.03;5080852;28;20011;-85
2023/05/09 00:10:30;;;;;;;;;;;;;;;23.66;21.85;99170.94;5064391;28;19921;-85
2023/05/09 00:12:57;;;;;;;;;;;;;;;23.40;22.05;99168.59;5066335;28;19928;-84
2023/05/09 00:15:24;;;;;;;;;;;;;;;23.38;21.93;99171.00;5064688;28;19951;-85
2023/05/09 00:17:50;;;;;;;;;;;;;;;23.55;21.99;99175.00;5065971;28;19924;-85
2023/05/09 00:20:16;;;;;;;;;;;;;;;23.66;22.04;99164.53;5065547;28;19967;-85
2023/05/09 00:22:42;;;;;;;;;;;;;;;23.56;22.28;99166.16;5050518;28;20007;-85
2023/05/09 00:25:09;;;;;;;;;;;;;;;23.61;21.80;99171.38;5045406;28;20027;-85
2023/05/09 00:27:35;;;;;;;;;;;;;;;23.57;21.99;99164.94;5054219;28;19928;-86
2023/05/09 00:30:02;;;;;;;;;;;;;;;23.73;21.64;99162.53;5072316;28;19920;-85
2023/05/09 00:32:28;;;;;;;;;;;;;;;23.71;21.60;99156.50;5070886;28;19925;-85
2023/05/09 00:34:54;;;;;;;;;;;;;;;23.72;21.58;99154.50;5068548;28;19916;-85
2023/05/09 00:37:20;;;;;;;;;;;;;;;23.54;21.84;99162.16;5068194;28;20292;-85
2023/05/09 00:39:47;;;;;;;;;;;;;;;23.55;21.95;99164.56;5067108;28;19916;-85
2023/05/09 00:42:13;;;;;;;;;;;;;;;23.64;21.63;99153.72;5076587;28;19982;-85
2023/05/09 00:44:39;;;;;;;;;;;;;;;23.74;21.57;99154.88;5073238;28;19928;-85
2023/05/09 00:47:06;;;;;;;;;;;;;;;23.76;21.53;99147.66;5079933;28;19926;-85
2023/05/09 00:49:32;;;;;;;;;;;;;;;23.69;21.50;99146.88;5075444;28;19936;-85
2023/05/09 00:51:58;;;;;;;;;;;;;;;23.58;21.54;99141.31;5080024;28;19955;-85
2023/05/09 00:54:25;;;;;;;;;;;;;;;23.55;21.63;99147.72;5093637;28;19927;-85
2023/05/09 00:56:51;;;;;;;;;;;;;;;23.49;21.77;99148.56;5051006;28;20390;-84
2023/05/09 00:59:17;;;;;;;;;;;;;;;23.47;21.49;99145.38;5083057;28;19924;-85
2023/05/09 01:01:44;;;;;;;;;;;;;;;23.53;21.78;99141.72;5084552;28;19931;-85
2023/05/09 01:04:11;;;;;;;;;;;;;;;23.64;21.87;99139.69;5063342;28;20303;-84
2023/05/09 01:06:43;;;;;;;;;;;;;;;23.64;21.70;99134.09;5065458;28;19935;-84
2023/05/09 01:09:21;;;;;;;;;;;;;;;23.60;22.00;99132.50;5056998;28;19924;-84
2023/05/09 01:11:54;;;;;;;;;;;;;;;23.47;21.60;99134.16;5055679;28;19928;-84
2023/05/09 01:14:36;;;;;;;;;;;;;;;23.45;22.08;99128.97;5065786;28;19921;-84
2023/05/09 01:17:21;;;;;;;;;;;;;;;23.41;21.75;99127.38;5055584;28;19935;-84
2023/05/09 01:19:58;;;;;;;;;;;;;;;23.35;22.02;99130.59;5060042;28;19924;-85
2023/05/09 01:22:28;;;;;;;;;;;;;;;23.40;22.31;99122.97;5057192;28;19928;-85
2023/05/09 01:25:05;;;;;;;;;;;;;;;23.41;21.71;99142.16;5057353;28;19928;-84
2023/05/09 01:27:43;;;;;;;;;;;;;;;23.52;21.88;99133.75;5051214;28;20400;-84
2023/05/09 01:30:11;;;;;;;;;;;;;;;23.48;21.27;99130.16;5054722;28;20065;-85
2023/05/09 01:32:38;;;;;;;;;;;;;;;23.15;22.20;99131.41;5062093;28;19925;-84
2023/05/09 01:35:05;;;;;;;;;;;;;;;23.04;22.37;99139.00;5059873;28;19973;-84
2023/05/09 01:37:35;;;;;;;;;;;;;;;22.98;22.37;99129.41;5071312;28;20448;-84
2023/05/09 01:40:12;;;;;;;;;;;;;;;22.90;22.54;99142.59;5079790;28;19928;-84
2023/05/09 01:42:41;;;;;;;;;;;;;;;22.71;22.64;99136.63;5064908;28;19927;-84
2023/05/09 01:45:08;;;;;;;;;;;;;;;22.89;22.83;99137.41;5060214;28;19944;-84
2023/05/09 01:47:36;;;;;;;;;;;;;;;22.98;22.48;99127.41;5069087;28;20017;-84
2023/05/09 01:50:02;;;;;;;;;;;;;;;22.96;22.19;99135.41;5058096;28;19932;-84
2023/05/09 01:52:29;;;;;;;;;;;;;;;23.06;22.61;99125.38;5061379;28;19924;-85
2023/05/09 01:54:55;;;;;;;;;;;;;;;23.18;22.05;99136.16;5067140;28;19948;-85
2023/05/09 01:57:22;;;;;;;;;;;;;;;22.89;22.47;99129.00;5043557;28;19921;-85
2023/05/09 01:59:48;;;;;;;;;;;;;;;22.32;23.39;99120.53;5070788;28;19962;-85
2023/05/09 02:02:14;;;;;;;;;;;;;;;22.03;23.68;99121.69;5062999;28;20329;-85
2023/05/09 02:04:42;;;;;;;;;;;;;;;22.16;23.49;99120.13;5041589;28;19993;-85
2023/05/09 02:07:08;;;;;;;;;;;;;;;22.19;23.70;99116.53;5063182;28;19928;-85
2023/05/09 02:09:34;;;;;;;;;;;;;;;22.30;23.26;99122.94;5061461;28;19920;-85
2023/05/09 02:12:00;;;;;;;;;;;;;;;22.28;23.60;99121.75;5055245;28;19920;-85
2023/05/09 02:14:27;;;;;;;;;;;;;;;22.14;23.83;99122.50;5053103;28;19995;-85
2023/05/09 02:16:53;;;;;;;;;;;;;;;21.75;24.35;99113.94;5058917;28;19924;-85
2023/05/09 02:19:19;;;;;;;;;;;;;;;22.06;24.11;99117.28;5044439;28;19955;-85
2023/05/09 02:21:45;;;;;;;;;;;;;;;22.12;24.11;99113.72;5053829;28;19970;-85
2023/05/09 02:24:11;;;;;;;;;;;;;;;21.48;25.24;99107.06;5073263;28;19952;-85
2023/05/09 02:26:37;;;;;;;;;;;;;;;21.40;25.29;99113.78;5064268;28;19927;-85
2023/05/09 02:29:05;;;;;;;;;;;;;;;21.87;24.75;99112.81;5067482;28;19927;-85
2023/05/09 02:31:32;;;;;;;;;;;;;;;21.70;25.17;99105.97;5067040;28;19929;-84
2023/05/09 02:33:58;;;;;;;;;;;;;;;21.40;26.25;99102.59;5071477;28;21905;-84
2023/05/09 02:36:24;;;;;;;;;;;;;;;21.74;25.58;99105.97;5066052;28;19924;-84
2023/05/09 02:38:50;;;;;;;;;;;;;;;22.00;25.04;99105.69;5069246;28;19935;-84
2023/05/09 02:41:16;;;;;;;;;;;;;;;21.99;24.88;99101.28;5079749;28;20403;-85
2023/05/09 02:43:42;;;;;;;;;;;;;;;21.91;24.93;99100.47;5056685;28;20329;-84
2023/05/09 02:46:08;;;;;;;;;;;;;;;21.67;25.15;99103.94;5068003;28;19958;-83
2023/05/09 02:48:35;;;;;;;;;;;;;;;21.54;25.37;99099.88;5070558;28;20397;-84
2023/05/09 02:51:01;;;;;;;;;;;;;;;21.65;24.85;99097.97;5074711;28;19928;-82
2023/05/09 02:53:27;;;;;;;;;;;;;;;21.71;24.90;99092.78;5067299;28;19932;-82
2023/05/09 02:55:53;;;;;;;;;;;;;;;21.74;24.80;99095.59;5069258;28;19964;-85
2023/05/09 02:58:19;;;;;;;;;;;;;;;21.88;24.39;99103.25;5054479;28;19927;-85
2023/05/09 03:00:45;;;;;;;;;;;;;;;21.89;24.31;99102.06;5048740;28;19931;-85
2023/05/09 03:03:11;;;;;;;;;;;;;;;21.83;24.23;99098.00;5070731;28;19920;-84
2023/05/09 03:05:37;;;;;;;;;;;;;;;21.60;24.82;99100.31;5052761;28;19928;-85
2023/05/09 03:08:04;;;;;;;;;;;;;;;21.61;24.43;99101.94;5064228;28;20287;-85
2023/05/09 03:10:30;;;;;;;;;;;;;;;21.79;24.06;99098.00;5071926;28;19968;-84
2023/05/09 03:12:56;;;;;;;;;;;;;;;21.98;23.87;99097.69;5079570;28;20379;-85
2023/05/09 03:15:22;;;;;;;;;;;;;;;21.84;24.04;99099.66;5074404;28;20007;-85
2023/05/09 03:17:48;;;;;;;;;;;;;;;21.75;24.14;99097.19;5074974;28;20065;-85
2023/05/09 03:20:14;;;;;;;;;;;;;;;21.65;24.56;99097.97;5073767;28;20007;-85
2023/05/09 03:22:40;;;;;;;;;;;;;;;21.45;24.50;99101.47;5070991;28;20388;-85
2023/05/09 03:25:06;;;;;;;;;;;;;;;21.38;24.86;99105.00;5069456;28;19928;-85
2023/05/09 03:27:32;;;;;;;;;;;;;;;21.00;25.53;99102.75;5072287;28;19916;-84
2023/05/09 03:29:58;;;;;;;;;;;;;;;21.08;25.38;99096.03;5078339;28;19921;-85
2023/05/09 03:32:25;;;;;;;;;;;;;;;22.30;23.37;99097.75;5070592;28;19920;-85
2023/05/09 03:34:51;;;;;;;;;;;;;;;22.51;23.18;99103.38;5070378;28;20356;-85
2023/05/09 03:37:17;;;;;;;;;;;;;;;22.56;23.44;99097.41;5068133;28;19971;-85
2023/05/09 03:39:43;;;;;;;;;;;;;;;22.64;23.32;99096.22;5074456;28;19935;-85
2023/05/09 03:42:09;;;;;;;;;;;;;;;22.84;23.35;99107.00;5054878;28;20295;-85
2023/05/09 03:44:35;;;;;;;;;;;;;;;22.98;22.69;99105.00;5060367;28;19928;-85
2023/05/09 03:47:02;;;;;;;;;;;;;;;23.16;22.69;99104.97;5070012;28;19927;-85
2023/05/09 03:49:28;;;;;;;;;;;;;;;23.29;22.79;99100.53;5051350;28;20475;-84
2023/05/09 03:51:54;;;;;;;;;;;;;;;22.40;24.67;99104.56;5084933;28;19920;-85
2023/05/09 03:54:20;;;;;;;;;;;;;;;22.84;24.26;99112.59;5064364;28;19936;-85
2023/05/09 03:56:46;;;;;;;;;;;;;;;22.67;25.73;99117.00;5069775;28;20030;-85
2023/05/09 03:59:12;;;;;;;;;;;;;;;22.76;25.34;99111.00;5068951;28;19928;-85
2023/05/09 04:01:38;;;;;;;;;;;;;;;23.02;25.64;99108.59;5064745;28;19925;-85
2023/05/09 04:04:04;;;;;;;;;;;;;;;23.31;26.33;99112.16;5068083;28;19920;-86
2023/05/09 04:06:32;;;;;;;;;;;;;;;23.58;25.30;99104.88;5063763;28;19937;-85
2023/05/09 04:08:58;;;;;;;;;;;;;;;23.59;25.33;99112.09;5069488;28;19924;-85
2023/05/09 04:11:24;;;;;;;;;;;;;;;23.40;25.04;99106.13;5063375;28;20067;-86
2023/05/09 04:13:50;;;;;;;;;;;;;;;23.19;25.83;99115.38;5055722;28;20296;-86
2023/05/09 04:16:16;;;;;;;;;;;;;;;23.59;25.42;99103.69;5052523;28;19932;-86
2023/05/09 04:18:42;;;;;;;;;;;;;;;23.59;25.18;99105.69;5060506;28;19928;-86
2023/05/09 04:21:08;;;;;;;;;;;;;;;21.97;27.22;99112.88;5060680;28;19920;-87
2023/05/09 04:23:34;;;;;;;;;;;;;;;20.18;32.15;99109.63;5069859;28;20440;-88
2023/05/09 04:26:00;;;;;;;;;;;;;;;21.25;28.29;99107.34;5067909;28;19928;-89
2023/05/09 04:28:26;;;;;;;;;;;;;;;22.87;26.58;99106.22;5069437;28;19928;-87
2023/05/09 04:30:52;;;;;;;;;;;;;;;23.16;26.95;99105.78;5062111;28;19974;-86
2023/05/09 04:33:18;;;;;;;;;;;;;;;23.46;27.48;99102.50;5050047;28;19936;-86
2023/05/09 04:35:44;;;;;;;;;;;;;;;24.02;26.22;99093.84;5061673;28;19920;-86
2023/05/09 04:38:11;;;;;;;;;;;;;;;24.40;26.00;99102.47;5074512;28;19920;-87
2023/05/09 04:40:37;;;;;;;;;;;;;;;24.51;26.27;99100.38;5077679;28;19964;-87
2023/05/09 04:43:03;;;;;;;;;;;;;;;24.58;26.13;99103.13;5070987;28;20043;-86
2023/05/09 04:45:29;;;;;;;;;;;;;;;23.49;27.00;99100.91;5043836;28;19924;-86
2023/05/09 04:47:55;;;;;;;;;;;;;;;23.99;26.18;99105.88;5073345;28;19936;-86
2023/05/09 04:50:21;;;;;;;;;;;;;;;23.67;27.22;99098.81;5062550;28;20016;-87
2023/05/09 04:52:47;;;;;;;;;;;;;;;24.08;26.96;99099.88;5061485;28;20016;-88
2023/05/09 04:55:13;;;;;;;;;;;;;;;24.16;26.81;99107.03;5062444;28;19916;-90
2023/05/09 04:57:39;;;;;;;;;;;;;;;24.20;26.88;99115.44;5071963;28;20010;-86
2023/05/09 05:00:06;;;;;;;;;;;;;;;24.59;26.57;99108.34;5062733;28;19913;-87
2023/05/09 05:02:32;;;;;;;;;;;;;;;23.39;28.62;99113.75;5051228;28;19924;-89
2023/05/09 05:04:58;;;;;;;;;;;;;;;22.10;32.98;99118.09;5056823;28;19929;-88
2023/05/09 05:07:25;;;;;;;;;;;;;;;22.31;30.08;99113.34;5076748;28;19981;-87
2023/05/09 05:09:51;;;;;;;;;;;;;;;21.68;31.34;99113.16;5076176;28;19925;-87
2023/05/09 05:12:17;;;;;;;;;;;;;;;20.65;34.86;99108.88;5078926;28;19920;-87
2023/05/09 05:14:43;;;;;;;;;;;;;;;20.51;34.80;99103.97;5079570;28;19916;-87
2023/05/09 05:17:09;;;;;;;;;;;;;;;20.81;35.24;99103.81;5079675;28;20379;-86
2023/05/09 05:19:35;;;;;;;;;;;;;;;20.80;33.54;99106.97;5079171;28;19958;-86
2023/05/09 05:22:01;;;;;;;;;;;;;;;21.36;35.57;99101.78;5078262;28;19964;-86
2023/05/09 05:24:27;;;;;;;;;;;;;;;21.73;31.19;99095.97;5077365;28;20372;-87
2023/05/09 05:26:53;;;;;;;;;;;;;;;22.87;30.64;99095.78;5054633;28;19923;-86
2023/05/09 05:29:19;;;;;;;;;;;;;;;22.43;30.93;99096.16;5055486;28;19916;-87
2023/05/09 05:31:45;;;;;;;;;;;;;;;22.02;31.84;99094.91;5072767;28;19939;-87
2023/05/09 05:34:12;;;;;;;;;;;;;;;22.25;32.88;99095.34;5076173;28;19921;-88
2023/05/09 05:36:38;;;;;;;;;;;;;;;22.14;30.57;99093.72;5075993;28;19920;-86
2023/05/09 05:39:04;;;;;;;;;;;;;;;23.05;30.01;99101.38;5076022;28;20318;-88
2023/05/09 05:41:30;;;;;;;;;;;;;;;23.81;29.41;99095.97;5076081;28;19916;-87
2023/05/09 05:43:56;;;;;;;;;;;;;;;24.64;29.48;99091.03;5075925;28;20407;-88
2023/05/09 05:46:22;;;;;;;;;;;;;;;24.88;28.39;99077.25;5064297;28;19924;-88
2023/05/09 05:48:48;;;;;;;;;;;;;;;24.53;26.88;99079.09;5075818;28;19920;-87
2023/05/09 05:51:14;;;;;;;;;;;;;;;24.23;29.32;99075.31;5075775;28;20053;-87
2023/05/09 05:53:40;;;;;;;;;;;;;;;24.50;28.90;99073.53;5075144;28;20065;-87
2023/05/09 05:56:06;;;;;;;;;;;;;;;24.97;27.52;99081.13;5075947;28;20356;-87
2023/05/09 05:58:32;;;;;;;;;;;;;;;25.34;27.69;99080.38;5075771;28;20376;-87
2023/05/09 06:00:58;;;;;;;;;;;;;;;23.09;32.02;99090.97;5070746;28;19978;-87
2023/05/09 06:03:24;;;;;;;;;;;;;;;21.60;32.98;99083.56;5055594;28;19917;-85
2023/05/09 06:05:50;;;;;;;;;;;;;;;22.26;31.64;99080.19;5078745;28;19927;-86
2023/05/09 06:08:16;;;;;;;;;;;;;;;21.51;31.99;99078.34;5073262;28;19917;-85
2023/05/09 06:10:42;;;;;;;;;;;;;;;22.22;30.92;99086.97;5075044;28;19917;-85
2023/05/09 06:13:08;;;;;;;;;;;;;;;20.95;33.83;99087.19;5075561;28;19943;-86
2023/05/09 06:15:34;;;;;;;;;;;;;;;21.19;31.65;99080.97;5075163;28;20381;-85
2023/05/09 06:18:01;;;;;;;;;;;;;;;21.35;32.96;99073.06;5075290;28;20361;-85
2023/05/09 06:20:27;;;;;;;;;;;;;;;20.56;33.01;99074.94;5057164;28;19912;-85
2023/05/09 06:22:53;;;;;;;;;;;;;;;21.16;33.61;99073.38;5075573;28;19974;-86
2023/05/09 06:25:19;;;;;;;;;;;;;;;20.12;33.91;99079.69;5075041;28;19924;-86
2023/05/09 06:27:45;;;;;;;;;;;;;;;21.98;32.83;99071.75;5057016;28;19912;-86
2023/05/09 06:30:11;;;;;;;;;;;;;;;21.72;33.23;99074.81;5079576;28;20019;-86
2023/05/09 06:32:37;;;;;;;;;;;;;;;22.11;32.69;99077.75;5082664;28;19924;-86
2023/05/09 06:35:03;;;;;;;;;;;;;;;22.01;34.13;99084.91;5084301;28;19920;-86
2023/05/09 06:37:32;;;;;;;;;;;;;;;21.08;33.64;99071.72;5095090;28;19916;-86
2023/05/09 06:39:58;;;;;;;;;;;;;;;19.72;38.13;99080.44;5077446;28;20019;-86
2023/05/09 06:42:25;;;;;;;;;;;;;;;20.49;33.61;99072.09;5074549;28;19967;-86
2023/05/09 06:44:51;;;;;;;;;;;;;;;21.39;33.69;99072.28;5069264;28;20402;-86
2023/05/09 06:47:17;;;;;;;;;;;;;;;22.55;31.04;99065.00;5072638;28;19956;-88
2023/05/09 06:49:43;;;;;;;;;;;;;;;22.19;32.17;99062.59;5074664;28;19923;-88
2023/05/09 06:52:09;;;;;;;;;;;;;;;20.21;38.25;99060.63;5074854;28;19916;-90
2023/05/09 06:54:35;;;;;;;;;;;;;;;21.03;33.41;99062.88;5074777;28;19916;-88
2023/05/09 06:57:01;;;;;;;;;;;;;;;21.41;32.96;99059.53;5074895;28;20368;-90
2023/05/09 06:59:27;;;;;;;;;;;;;;;23.52;30.28;99046.84;5074626;28;19927;-89
2023/05/09 07:01:54;;;;;;;;;;;;;;;24.31;29.68;99048.81;5069303;28;20007;-88
2023/05/09 07:04:20;;;;;;;;;;;;;;;24.77;27.75;99042.81;5073979;28;20321;-89
2023/05/09 07:06:46;;;;;;;;;;;;;;;23.88;27.80;99049.06;5084052;28;20439;-88
2023/05/09 07:09:16;;;;;;;;;;;;;;;22.37;34.75;99055.81;5094960;28;19917;-88
2023/05/09 07:11:42;;;;;;;;;;;;;;;23.40;30.61;99044.47;5074493;28;19918;-89
2023/05/09 07:14:08;;;;;;;;;;;;;;;21.58;33.91;99046.81;5071651;28;20291;-89
2023/05/09 07:16:34;;;;;;;;;;;;;;;23.08;31.12;99036.16;5070631;28;19925;-88
2023/05/09 07:19:00;;;;;;;;;;;;;;;23.25;32.23;99033.28;5066306;28;19916;-86
2023/05/09 07:21:26;;;;;;;;;;;;;;;21.98;35.17;99029.78;5074133;28;20012;-87
2023/05/09 07:23:52;;;;;;;;;;;;;;;21.36;37.63;99029.16;5057087;28;19921;-85
2023/05/09 07:26:18;;;;;;;;;;;;;;;23.01;30.73;99024.97;5054323;28;20307;-86
2023/05/09 07:28:44;;;;;;;;;;;;;;;23.40;29.94;99028.47;5054197;28;19916;-89
2023/05/09 07:31:10;;;;;;;;;;;;;;;22.40;30.74;99031.81;5054076;28;19917;-87
2023/05/09 07:33:36;;;;;;;;;;;;;;;22.35;29.69;99026.63;5056307;28;19916;-89
2023/05/09 07:36:02;;;;;;;;;;;;;;;21.20;36.53;99032.28;5078197;28;20303;-88
2023/05/09 07:38:28;;;;;;;;;;;;;;;21.13;35.10;99015.50;5080013;28;19993;-90
2023/05/09 07:40:54;;;;;;;;;;;;;;;21.91;31.62;99021.41;5070021;28;19946;-89
2023/05/09 07:43:20;;;;;;;;;;;;;;;20.83;34.86;99014.91;5055748;28;20292;-89
2023/05/09 07:45:46;;;;;;;;;;;;;;;19.92;38.70;99024.13;5073737;28;19928;-86
2023/05/09 07:48:12;;;;;;;;;;;;;;;19.65;38.99;99024.63;5073015;28;19917;-86
2023/05/09 07:50:39;;;;;;;;;;;;;;;19.88;34.82;99019.69;5073480;28;19987;-87
2023/05/09 07:53:05;;;;;;;;;;;;;;;20.18;37.63;99008.41;5073706;28;20003;-86
2023/05/09 07:55:31;;;;;;;;;;;;;;;22.38;30.37;99007.03;5071088;28;20007;-86
2023/05/09 07:57:57;;;;;;;;;;;;;;;21.94;36.19;99006.59;5073825;28;19962;-86
2023/05/09 08:00:23;;;;;;;;;;;;;;;22.36;34.81;98998.22;5073779;28;19959;-87
2023/05/09 08:02:52;;;;;;;;;;;;;;;21.35;34.29;99006.00;5061828;28;19920;-86
2023/05/09 08:05:19;;;;;;;;;;;;;;;21.33;33.13;99004.84;5073423;28;19916;-86
2023/05/09 08:07:45;;;;;;;;;;;;;;;22.16;32.16;99008.22;5073041;28;19932;-86
2023/05/09 08:10:11;;;;;;;;;;;;;;;24.04;28.60;99001.66;5073495;28;19917;-87
2023/05/09 08:12:37;;;;;;;;;;;;;;;25.07;30.54;98995.94;5073605;28;20474;-86
2023/05/09 08:15:04;;;;;;;;;;;;;;;24.19;27.77;98995.97;5073474;28;19925;-86
2023/05/09 08:17:30;;;;;;;;;;;;;;;24.66;28.53;98993.16;5073230;28;19916;-87
2023/05/09 08:19:56;;;;;;;;;;;;;;;24.87;26.43;98986.53;5073625;28;19923;-85
2023/05/09 08:22:22;;;;;;;;;;;;;;;24.18;32.09;98974.75;5057712;28;19917;-85
2023/05/09 08:24:48;;;;;;;;;;;;;;;23.70;31.23;98983.88;5056930;28;20354;-85
2023/05/09 08:27:14;;;;;;;;;;;;;;;23.03;35.95;98978.56;5055588;28;20007;-86
2023/05/09 08:29:40;;;;;;;;;;;;;;;22.67;29.89;98982.63;5073307;28;19962;-86
2023/05/09 08:32:06;;;;;;;;;;;;;;;22.75;35.09;98989.03;5079514;28;19928;-87
2023/05/09 08:34:35;;;;;;;;;;;;;;;22.40;36.30;98978.66;5070055;28;20011;-86
2023/05/09 08:37:02;;;;;;;;;;;;;;;20.97;36.61;98978.72;5073475;28;20007;-87
2023/05/09 08:39:29;;;;;;;;;;;;;;;20.85;34.96;98992.19;5073529;28;19924;-88
2023/05/09 08:41:58;;;;;;;;;;;;;;;20.80;38.39;98979.41;5072716;28;20265;-87
2023/05/09 08:44:25;;;;;;;;;;;;;;;21.49;35.67;98982.94;5073199;28;19917;-86
2023/05/09 08:46:53;;;;;;;;;;;;;;;22.96;35.75;98975.78;5072912;28;20019;-87
2023/05/09 08:49:19;;;;;;;;;;;;;;;24.23;34.10;98977.09;5073351;28;19916;-85
2023/05/09 08:51:47;;;;;;;;;;;;;;;22.67;36.28;98969.44;5072868;28;19916;-86
2023/05/09 08:54:13;;;;;;;;;;;;;;;23.09;31.86;98976.13;5067387;28;19959;-85
2023/05/09 08:56:39;;;;;;;;;;;;;;;23.49;30.45;98963.56;5073224;28;20376;-86
2023/05/09 08:59:05;;;;;;;;;;;;;;;23.26;31.89;98972.44;5066422;28;19912;-88
2023/05/09 09:01:32;;;;;;;;;;;;;;;23.54;34.15;98961.13;5081378;28;19977;-87
2023/05/09 09:03:59;;;;;;;;;;;;;;;22.38;35.14;98981.06;5097149;28;19912;-86
2023/05/09 09:06:27;;;;;;;;;;;;;;;23.84;29.69;98966.13;5097059;28;19942;-85
2023/05/09 09:08:54;;;;;;;;;;;;;;;22.95;35.00;98960.16;5096636;28;19916;-85
2023/05/09 09:11:21;;;;;;;;;;;;;;;23.65;31.80;98973.06;5096825;28;19916;-90
2023/05/09 09:13:50;;;;;;;;;;;;;;;24.57;27.36;98961.16;5096196;28;20112;-86
2023/05/09 09:16:21;;;;;;;;;;;;;;;25.08;26.66;98961.00;5088251;28;19967;-88
2023/05/09 09:18:50;;;;;;;;;;;;;;;25.47;30.16;98956.91;5076687;28;19923;-85
2023/05/09 09:21:18;;;;;;;;;;;;;;;25.03;25.99;98935.38;5056284;28;19917;-85
2023/05/09 09:23:46;;;;;;;;;;;;;;;24.78;31.22;98952.53;5056700;28;19956;-86
2023/05/09 09:26:12;;;;;;;;;;;;;;;25.78;27.54;98950.06;5055833;28;20051;-86
2023/05/09 09:28:38;;;;;;;;;;;;;;;25.60;30.02;98946.72;5069143;28;19925;-87
2023/05/09 09:31:26;;;;;;;;;;;;;;;25.12;29.82;98947.72;5076332;28;20340;-85
2023/05/09 09:34:00;;;;;;;;;;;;;;;25.01;33.72;98946.25;5071442;28;20207;-85
2023/05/09 09:36:27;;;;;;;;;;;;;;;25.90;32.56;98946.66;5090955;28;19920;-85
2023/05/09 09:39:00;;;;;;;;;;;;;;;26.79;28.25;98941.13;5096326;28;19920;-85
2023/05/09 09:41:33;;;;;;;;;;;;;;;27.50;24.13;98940.47;5094556;28;19920;-85
2023/05/09 09:44:07;;;;;;;;;;;;;;;28.55;26.69;98936.31;5086867;28;19955;-84
2023/05/09 09:46:40;;;;;;;;;;;;;;;27.76;26.47;98935.84;5084582;28;20402;-85
2023/05/09 09:49:08;;;;;;;;;;;;;;;26.45;26.37;98943.34;5076134;28;19924;-86
2023/05/09 09:51:34;;;;;;;;;;;;;;;27.78;26.10;98928.53;5075090;28;20005;-85
2023/05/09 09:54:03;;;;;;;;;;;;;;;28.23;24.28;98934.31;5075851;28;19940;-85
2023/05/09 09:56:46;;;;;;;;;;;;;;;24.83;32.94;98929.63;5075753;28;19920;-85
2023/05/09 09:59:13;;;;;;;;;;;;;;;23.84;31.51;98933.28;5075666;28;19919;-86
2023/05/09 10:01:53;;;;;;;;;;;;;;;24.58;29.18;98931.84;5076763;28;19957;-85
2023/05/09 10:04:19;;;;;;;;;;;;;;;24.37;34.67;98946.09;5075725;28;19917;-86
2023/05/09 10:06:55;;;;;;;;;;;;;;;24.19;34.45;98939.84;5075658;28;19916;-87
2023/05/09 10:09:22;;;;;;;;;;;;;;;25.03;34.57;98936.19;5075579;28;19916;-85
2023/05/09 10:11:50;;;;;;;;;;;;;;;24.77;35.44;98931.28;5075780;28;19920;-85
2023/05/09 10:14:21;;;;;;;;;;;;;;;23.54;37.36;98927.50;5090362;28;19969;-86
2023/05/09 10:16:48;;;;;;;;;;;;;;;22.88;30.86;98934.97;5095486;28;19917;-85
2023/05/09 10:19:19;;;;;;;;;;;;;;;22.61;34.92;98931.84;5072471;28;19921;-85
2023/05/09 10:21:51;;;;;;;;;;;;;;;23.22;36.42;98924.06;5062832;28;20007;-85
2023/05/09 10:24:20;;;;;;;;;;;;;;;22.85;35.80;98924.59;5074078;28;19920;-85
2023/05/09 10:26:48;;;;;;;;;;;;;;;24.33;26.00;98926.50;5074911;28;19913;-86
2023/05/09 10:29:19;;;;;;;;;;;;;;;24.23;30.31;98926.56;5074845;28;19917;-85
2023/05/09 10:31:45;;;;;;;;;;;;;;;23.80;30.35;98926.91;5075325;28;19917;-86
2023/05/09 10:34:12;;;;;;;;;;;;;;;24.49;34.65;98925.94;5059511;28;19917;-85
2023/05/09 10:36:38;;;;;;;;;;;;;;;25.92;29.78;98916.88;5055329;28;19983;-85
2023/05/09 10:39:04;;;;;;;;;;;;;;;24.80;26.58;98924.81;5055103;28;20288;-87
2023/05/09 10:41:31;;;;;;;;;;;;;;;24.71;35.09;98904.84;5066984;28;19927;-86
2023/05/09 10:43:57;;;;;;;;;;;;;;;25.95;25.25;98915.22;5075070;28;20299;-85
2023/05/09 10:46:23;;;;;;;;;;;;;;;25.83;27.29;98907.38;5074696;28;19982;-85
2023/05/09 10:48:49;;;;;;;;;;;;;;;26.54;25.21;98892.88;5076321;28;19921;-83
2023/05/09 10:51:16;;;;;;;;;;;;;;;25.14;29.00;98896.69;5075707;28;19916;-86
2023/05/09 10:53:43;;;;;;;;;;;;;;;24.01;35.52;98895.88;5074248;28;19923;-85
2023/05/09 10:56:27;;;;;;;;;;;;;;;23.75;31.19;98888.09;5074942;28;20334;-86
2023/05/09 10:58:53;;;;;;;;;;;;;;;24.92;28.49;98884.16;5090706;28;19924;-86
2023/05/09 11:01:30;;;;;;;;;;;;;;;23.46;35.04;98897.09;5094956;28;19916;-86
2023/05/09 11:03:57;;;;;;;;;;;;;;;25.16;28.85;98883.00;5094591;28;19916;-84
2023/05/09 11:06:43;;;;;;;;;;;;;;;25.55;28.95;98888.13;5094630;28;19924;-86
2023/05/09 11:09:28;;;;;;;;;;;;;;;24.01;34.47;98883.88;5094753;28;19922;-87
2023/05/09 11:11:56;;;;;;;;;;;;;;;24.90;28.54;98878.16;5090438;28;19974;-85
2023/05/09 11:14:39;;;;;;;;;;;;;;;26.45;24.49;98881.38;5077905;28;19920;-84
2023/05/09 11:17:07;;;;;;;;;;;;;;;27.71;27.54;98869.44;5061407;28;20011;-85
2023/05/09 11:19:33;;;;;;;;;;;;;;;27.74;24.33;98871.38;5073688;28;20318;-84
2023/05/09 11:22:00;;;;;;;;;;;;;;;27.13;23.77;98867.53;5074733;28;19924;-84
2023/05/09 11:24:29;;;;;;;;;;;;;;;24.91;31.05;98860.06;5073420;28;20331;-86
2023/05/09 11:26:56;;;;;;;;;;;;;;;24.19;33.96;98867.69;5073552;28;20012;-86
2023/05/09 11:29:25;;;;;;;;;;;;;;;25.56;29.02;98865.19;5074008;28;19955;-85
2023/05/09 11:32:05;;;;;;;;;;;;;;;26.29;31.49;98865.19;5073176;28;19920;-84
2023/05/09 11:34:32;;;;;;;;;;;;;;;26.64;30.38;98856.06;5073625;28;19921;-86
2023/05/09 11:37:11;;;;;;;;;;;;;;;25.81;33.28;98859.19;5073666;28;20380;-85
2023/05/09 11:39:56;;;;;;;;;;;;;;;25.96;31.21;98871.78;5073812;28;19916;-86
2023/05/09 11:42:32;;;;;;;;;;;;;;;26.40;27.00;98854.50;5074132;28;19958;-85
2023/05/09 11:44:58;;;;;;;;;;;;;;;24.79;26.71;98832.53;5073433;28;19973;-85
2023/05/09 11:47:25;;;;;;;;;;;;;;;23.22;32.93;98840.78;5072692;28;19930;-84
2023/05/09 11:49:51;;;;;;;;;;;;;;;25.73;26.01;98840.81;5072921;28;19951;-84
2023/05/09 11:52:20;;;;;;;;;;;;;;;26.68;28.28;98822.97;5073755;28;19924;-84
2023/05/09 11:54:46;;;;;;;;;;;;;;;27.42;30.88;98837.50;5073763;28;19962;-85
2023/05/09 11:57:16;;;;;;;;;;;;;;;26.59;26.11;98831.19;5073682;28;20003;-85
2023/05/09 11:59:43;;;;;;;;;;;;;;;28.56;25.67;98813.56;5072978;28;20402;-84
2023/05/09 12:02:09;;;;;;;;;;;;;;;29.61;23.20;98822.91;5084948;28;19920;-85
2023/05/09 12:04:35;;;;;;;;;;;;;;;28.56;24.05;98816.41;5081802;28;20299;-85
2023/05/09 12:07:01;;;;;;;;;;;;;;;26.11;28.20;98828.13;5075256;28;19927;-85
2023/05/09 12:09:36;;;;;;;;;;;;;;;26.50;33.47;98821.75;5061401;28;19921;-86
2023/05/09 12:12:12;;;;;;;;;;;;;;;26.81;28.29;98819.53;5069639;28;19921;-85
2023/05/09 12:14:39;;;;;;;;;;;;;;;28.35;25.12;98812.16;5073281;28;19917;-85
2023/05/09 12:17:05;;;;;;;;;;;;;;;28.98;24.01;98817.22;5062757;28;19924;-86
2023/05/09 12:19:31;;;;;;;;;;;;;;;29.42;23.80;98805.72;5069949;28;19912;-84
2023/05/09 12:21:58;;;;;;;;;;;;;;;28.67;26.55;98814.88;5073555;28;19925;-87
2023/05/09 12:24:27;;;;;;;;;;;;;;;27.05;31.37;98809.75;5073070;28;20011;-85
2023/05/09 12:26:54;;;;;;;;;;;;;;;27.65;26.40;98794.22;5059343;28;19920;-86
2023/05/09 12:29:21;;;;;;;;;;;;;;;27.88;26.21;98800.47;5060859;28;19927;-84
2023/05/09 12:31:47;;;;;;;;;;;;;;;26.16;28.81;98796.69;5068360;28;20303;-84
2023/05/09 12:34:14;;;;;;;;;;;;;;;25.83;31.61;98806.09;5072506;28;19991;-84
2023/05/09 12:36:41;;;;;;;;;;;;;;;27.03;29.90;98798.88;5070082;28;19924;-84
2023/05/09 12:39:12;;;;;;;;;;;;;;;27.16;27.03;98796.19;5075197;28;19920;-85
2023/05/09 12:41:47;;;;;;;;;;;;;;;28.36;23.28;98785.47;5072536;28;19931;-86
2023/05/09 12:44:20;;;;;;;;;;;;;;;29.13;23.88;98788.03;5076811;28;19917;-85
2023/05/09 12:47:00;;;;;;;;;;;;;;;27.87;24.59;98784.75;5054273;28;19921;-85
2023/05/09 12:49:26;;;;;;;;;;;;;;;27.47;27.22;98788.25;5077948;28;19966;-88